sensor_id;sensor_type;location;lat;lon;timestamp;temperature;humidity
3542;DHT22;1785;47.388;8.538;2023-05-15T00:01:02;14.30;99.90
3542;DHT22;1785;47.388;8.538;2023-05-15T00:03:29;14.30;99.90
3542;DHT22;1785;47.388;8.538;2023-05-15T00:05:55;14.40;99.90
3542;DHT22;1785;47.388;8.538;2023-05-15T00:08:22;14.50;99.90
3542;DHT22;1785;47.388;8.538;2023-05-15T00:10:48;14.60;99.90
3542;DHT22;1785;47.388;8.538;2023-05-15T00:13:15;14.70;99.90
3542;DHT22;1785;47.388;8.538;2023-05-15T00:15:42;14.70;99.90
3542;DHT22;1785;47.388;8.538;2023-05-15T00:18:08;14.80;99.90
3542;DHT22;1785;47.388;8.538;2023-05-15T00:20:34;14.80;99.90
3542;DHT22;1785;47.388;8.538;2023-05-15T00:23:00;14.80;99.90
3542;DHT22;1785;47.388;8.538;2023-05-15T00:25:27;14.80;99.90
3542;DHT22;1785;47.388;8.538;2023-05-15T00:27:53;14.70;99.90
3542;DHT22;1785;47.388;8.538;2023-05-15T00:30:20;14.70;99.90
3542;DHT22;1785;47.388;8.538;2023-05-15T00:32:46;14.60;99.90
3542;DHT22;1785;47.388;8.538;2023-05-15T00:35:12;14.60;99.90
3542;DHT22;1785;47.388;8.538;2023-05-15T00:37:38;14.60;99.90
3542;DHT22;1785;47.388;8.538;2023-05-15T00:40:05;14.60;99.90
3542;DHT22;1785;47.388;8.538;2023-05-15T00:42:33;14.50;99.90
3542;DHT22;1785;47.388;8.538;2023-05-15T00:45:01;14.50;99.90
3542;DHT22;1785;47.388;8.538;2023-05-15T00:47:28;14.50;99.90
3542;DHT22;1785;47.388;8.538;2023-05-15T00:49:56;14.50;99.90
3542;DHT22;1785;47.388;8.538;2023-05-15T00:52:23;14.50;99.90
3542;DHT22;1785;47.388;8.538;2023-05-15T00:54:49;14.40;99.90
3542;DHT22;1785;47.388;8.538;2023-05-15T00:57:15;14.50;99.90
3542;DHT22;1785;47.388;8.538;2023-05-15T00:59:44;14.60;99.90
3542;DHT22;1785;47.388;8.538;2023-05-15T01:02:13;14.70;99.90
3542;DHT22;1785;47.388;8.538;2023-05-15T01:04:40;14.70;99.90
3542;DHT22;1785;47.388;8.538;2023-05-15T01:07:06;14.80;99.90
3542;DHT22;1785;47.388;8.538;2023-05-15T01:09:33;14.70;99.90
3542;DHT22;1785;47.388;8.538;2023-05-15T01:12:01;14.60;99.90
3542;DHT22;1785;47.388;8.538;2023-05-15T01:14:29;14.60;99.90
3542;DHT22;1785;47.388;8.538;2023-05-15T01:16:56;14.60;99.90
3542;DHT22;1785;47.388;8.538;2023-05-15T01:19:22;14.60;99.90
3542;DHT22;1785;47.388;8.538;2023-05-15T01:22:04;14.70;99.90
3542;DHT22;1785;47.388;8.538;2023-05-15T01:27:39;14.80;99.90
3542;DHT22;1785;47.388;8.538;2023-05-15T01:30:13;14.80;99.90
3542;DHT22;1785;47.388;8.538;2023-05-15T01:32:45;14.70;99.90
3542;DHT22;1785;47.388;8.538;2023-05-15T01:35:15;14.70;99.90
3542;DHT22;1785;47.388;8.538;2023-05-15T01:37:44;14.60;99.90
3542;DHT22;1785;47.388;8.538;2023-05-15T01:40:15;14.70;99.90
3542;DHT22;1785;47.388;8.538;2023-05-15T01:42:50;14.70;99.90
3542;DHT22;1785;47.388;8.538;2023-05-15T01:45:17;14.80;99.90
3542;DHT22;1785;47.388;8.538;2023-05-15T01:47:46;14.80;99.90
3542;DHT22;1785;47.388;8.538;2023-05-15T01:50:16;14.80;99.90
3542;DHT22;1785;47.388;8.538;2023-05-15T01:52:45;14.70;99.90
3542;DHT22;1785;47.388;8.538;2023-05-15T01:55:13;14.60;99.90
3542;DHT22;1785;47.388;8.538;2023-05-15T01:57:41;14.40;99.90
3542;DHT22;1785;47.388;8.538;2023-05-15T02:00:10;14.00;99.90
3542;DHT22;1785;47.388;8.538;2023-05-15T02:02:36;13.60;99.90
3542;DHT22;1785;47.388;8.538;2023-05-15T02:05:03;13.50;99.90
3542;DHT22;1785;47.388;8.538;2023-05-15T02:07:31;13.60;99.90
3542;DHT22;1785;47.388;8.538;2023-05-15T02:09:58;13.70;99.90
3542;DHT22;1785;47.388;8.538;2023-05-15T02:12:29;13.80;99.90
3542;DHT22;1785;47.388;8.538;2023-05-15T02:14:57;14.10;99.90
3542;DHT22;1785;47.388;8.538;2023-05-15T02:17:24;14.30;99.90
3542;DHT22;1785;47.388;8.538;2023-05-15T02:19:50;14.40;99.90
3542;DHT22;1785;47.388;8.538;2023-05-15T02:22:16;14.40;99.90
3542;DHT22;1785;47.388;8.538;2023-05-15T02:24:42;14.50;99.90
3542;DHT22;1785;47.388;8.538;2023-05-15T02:27:12;14.60;99.90
3542;DHT22;1785;47.388;8.538;2023-05-15T02:29:54;14.70;99.90
3542;DHT22;1785;47.388;8.538;2023-05-15T02:32:33;14.80;99.90
3542;DHT22;1785;47.388;8.538;2023-05-15T02:35:11;14.90;99.90
3542;DHT22;1785;47.388;8.538;2023-05-15T02:37:41;14.80;99.90
3542;DHT22;1785;47.388;8.538;2023-05-15T02:40:16;14.70;99.90
3542;DHT22;1785;47.388;8.538;2023-05-15T02:42:44;14.60;99.90
3542;DHT22;1785;47.388;8.538;2023-05-15T02:45:11;13.80;99.90
3542;DHT22;1785;47.388;8.538;2023-05-15T02:47:39;13.50;99.90
3542;DHT22;1785;47.388;8.538;2023-05-15T02:50:06;13.50;99.90
3542;DHT22;1785;47.388;8.538;2023-05-15T02:52:33;13.80;99.90
3542;DHT22;1785;47.388;8.538;2023-05-15T02:54:59;14.00;99.90
3542;DHT22;1785;47.388;8.538;2023-05-15T02:57:25;14.20;99.90
3542;DHT22;1785;47.388;8.538;2023-05-15T02:59:52;14.40;99.90
3542;DHT22;1785;47.388;8.538;2023-05-15T03:02:18;14.40;99.90
3542;DHT22;1785;47.388;8.538;2023-05-15T03:04:44;14.40;99.90
3542;DHT22;1785;47.388;8.538;2023-05-15T03:07:11;14.20;99.90
3542;DHT22;1785;47.388;8.538;2023-05-15T03:09:38;13.90;99.90
3542;DHT22;1785;47.388;8.538;2023-05-15T03:12:05;14.00;99.90
3542;DHT22;1785;47.388;8.538;2023-05-15T03:14:31;14.10;99.90
3542;DHT22;1785;47.388;8.538;2023-05-15T03:16:58;14.20;99.90
3542;DHT22;1785;47.388;8.538;2023-05-15T03:19:25;14.30;99.90
3542;DHT22;1785;47.388;8.538;2023-05-15T03:21:51;14.30;99.90
3542;DHT22;1785;47.388;8.538;2023-05-15T03:24:17;14.40;99.90
3542;DHT22;1785;47.388;8.538;2023-05-15T03:26:44;14.30;99.90
3542;DHT22;1785;47.388;8.538;2023-05-15T03:29:10;14.20;99.90
3542;DHT22;1785;47.388;8.538;2023-05-15T03:31:36;14.20;99.90
3542;DHT22;1785;47.388;8.538;2023-05-15T03:34:02;14.30;99.90
3542;DHT22;1785;47.388;8.538;2023-05-15T03:36:28;14.40;99.90
3542;DHT22;1785;47.388;8.538;2023-05-15T03:38:55;14.40;99.90
3542;DHT22;1785;47.388;8.538;2023-05-15T03:41:22;14.20;99.90
3542;DHT22;1785;47.388;8.538;2023-05-15T03:43:48;14.00;99.90
3542;DHT22;1785;47.388;8.538;2023-05-15T03:46:14;14.10;99.90
3542;DHT22;1785;47.388;8.538;2023-05-15T03:48:40;14.10;99.90
3542;DHT22;1785;47.388;8.538;2023-05-15T03:51:06;14.10;99.90
3542;DHT22;1785;47.388;8.538;2023-05-15T03:53:32;14.20;99.90
3542;DHT22;1785;47.388;8.538;2023-05-15T03:55:59;14.20;99.90
3542;DHT22;1785;47.388;8.538;2023-05-15T03:58:25;14.20;99.90
3542;DHT22;1785;47.388;8.538;2023-05-15T04:00:51;14.20;99.90
3542;DHT22;1785;47.388;8.538;2023-05-15T04:03:17;14.30;99.90
3542;DHT22;1785;47.388;8.538;2023-05-15T04:05:43;14.10;99.90
3542;DHT22;1785;47.388;8.538;2023-05-15T04:08:09;14.00;99.90
3542;DHT22;1785;47.388;8.538;2023-05-15T04:10:36;14.10;99.90
3542;DHT22;1785;47.388;8.538;2023-05-15T04:13:03;14.10;99.90
3542;DHT22;1785;47.388;8.538;2023-05-15T04:15:29;14.20;99.90
3542;DHT22;1785;47.388;8.538;2023-05-15T04:17:55;14.20;99.90
3542;DHT22;1785;47.388;8.538;2023-05-15T04:20:22;14.20;99.90
3542;DHT22;1785;47.388;8.538;2023-05-15T04:22:49;14.20;99.90
3542;DHT22;1785;47.388;8.538;2023-05-15T04:25:15;14.20;99.90
3542;DHT22;1785;47.388;8.538;2023-05-15T04:27:42;14.40;99.90
3542;DHT22;1785;47.388;8.538;2023-05-15T04:30:10;14.40;99.90
3542;DHT22;1785;47.388;8.538;2023-05-15T04:32:37;14.50;99.90
3542;DHT22;1785;47.388;8.538;2023-05-15T04:35:05;14.50;99.90
3542;DHT22;1785;47.388;8.538;2023-05-15T04:37:34;14.60;99.90
3542;DHT22;1785;47.388;8.538;2023-05-15T04:40:01;14.60;99.90
3542;DHT22;1785;47.388;8.538;2023-05-15T04:42:27;14.60;99.90
3542;DHT22;1785;47.388;8.538;2023-05-15T04:44:53;14.60;99.90
3542;DHT22;1785;47.388;8.538;2023-05-15T04:47:20;14.60;99.90
3542;DHT22;1785;47.388;8.538;2023-05-15T04:49:46;14.60;99.90
3542;DHT22;1785;47.388;8.538;2023-05-15T04:52:14;14.70;99.90
3542;DHT22;1785;47.388;8.538;2023-05-15T04:54:40;14.60;99.90
3542;DHT22;1785;47.388;8.538;2023-05-15T04:57:07;14.60;99.90
3542;DHT22;1785;47.388;8.538;2023-05-15T04:59:33;14.50;99.90
3542;DHT22;1785;47.388;8.538;2023-05-15T05:02:00;14.40;99.90
3542;DHT22;1785;47.388;8.538;2023-05-15T05:04:27;14.50;99.90
3542;DHT22;1785;47.388;8.538;2023-05-15T05:06:53;14.40;99.90
3542;DHT22;1785;47.388;8.538;2023-05-15T05:09:19;14.40;99.90
3542;DHT22;1785;47.388;8.538;2023-05-15T05:11:46;14.40;99.90
3542;DHT22;1785;47.388;8.538;2023-05-15T05:14:13;14.30;99.90
3542;DHT22;1785;47.388;8.538;2023-05-15T05:16:40;14.40;99.90
3542;DHT22;1785;47.388;8.538;2023-05-15T05:19:06;14.50;99.90
3542;DHT22;1785;47.388;8.538;2023-05-15T05:21:33;14.50;99.90
3542;DHT22;1785;47.388;8.538;2023-05-15T05:23:59;14.50;99.90
3542;DHT22;1785;47.388;8.538;2023-05-15T05:26:25;14.50;99.90
3542;DHT22;1785;47.388;8.538;2023-05-15T05:28:52;14.50;99.90
3542;DHT22;1785;47.388;8.538;2023-05-15T05:31:19;14.50;99.90
3542;DHT22;1785;47.388;8.538;2023-05-15T05:33:45;14.40;99.90
3542;DHT22;1785;47.388;8.538;2023-05-15T05:36:13;14.40;99.90
3542;DHT22;1785;47.388;8.538;2023-05-15T05:38:40;14.50;99.90
3542;DHT22;1785;47.388;8.538;2023-05-15T05:41:07;14.40;99.90
3542;DHT22;1785;47.388;8.538;2023-05-15T05:43:33;14.30;99.90
3542;DHT22;1785;47.388;8.538;2023-05-15T05:45:59;14.50;99.90
3542;DHT22;1785;47.388;8.538;2023-05-15T05:48:25;14.60;99.90
3542;DHT22;1785;47.388;8.538;2023-05-15T05:50:51;14.70;99.90
3542;DHT22;1785;47.388;8.538;2023-05-15T05:53:17;14.70;99.90
3542;DHT22;1785;47.388;8.538;2023-05-15T05:55:44;14.60;99.90
3542;DHT22;1785;47.388;8.538;2023-05-15T05:58:10;14.70;99.90
3542;DHT22;1785;47.388;8.538;2023-05-15T06:00:36;14.80;99.90
3542;DHT22;1785;47.388;8.538;2023-05-15T06:03:02;14.70;99.90
3542;DHT22;1785;47.388;8.538;2023-05-15T06:05:29;14.70;99.90
3542;DHT22;1785;47.388;8.538;2023-05-15T06:07:55;14.60;99.90
3542;DHT22;1785;47.388;8.538;2023-05-15T06:10:23;14.50;99.90
3542;DHT22;1785;47.388;8.538;2023-05-15T06:12:50;14.60;99.90
3542;DHT22;1785;47.388;8.538;2023-05-15T06:15:16;14.40;99.90
3542;DHT22;1785;47.388;8.538;2023-05-15T06:17:42;14.30;99.90
3542;DHT22;1785;47.388;8.538;2023-05-15T06:20:09;14.40;99.90
3542;DHT22;1785;47.388;8.538;2023-05-15T06:22:36;14.30;99.90
3542;DHT22;1785;47.388;8.538;2023-05-15T06:25:04;14.40;99.90
3542;DHT22;1785;47.388;8.538;2023-05-15T06:27:30;14.50;99.90
3542;DHT22;1785;47.388;8.538;2023-05-15T06:29:57;14.60;99.90
3542;DHT22;1785;47.388;8.538;2023-05-15T06:32:24;14.60;99.90
3542;DHT22;1785;47.388;8.538;2023-05-15T06:34:50;14.10;99.90
3542;DHT22;1785;47.388;8.538;2023-05-15T06:37:16;13.70;99.90
3542;DHT22;1785;47.388;8.538;2023-05-15T06:39:42;13.50;99.90
3542;DHT22;1785;47.388;8.538;2023-05-15T06:42:09;13.60;99.90
3542;DHT22;1785;47.388;8.538;2023-05-15T06:44:36;13.70;99.90
3542;DHT22;1785;47.388;8.538;2023-05-15T06:47:04;13.90;99.90
3542;DHT22;1785;47.388;8.538;2023-05-15T06:49:30;13.90;99.90
3542;DHT22;1785;47.388;8.538;2023-05-15T06:51:57;14.10;99.90
3542;DHT22;1785;47.388;8.538;2023-05-15T06:54:24;14.00;99.90
3542;DHT22;1785;47.388;8.538;2023-05-15T06:56:50;14.10;99.90
3542;DHT22;1785;47.388;8.538;2023-05-15T06:59:16;14.00;99.90
3542;DHT22;1785;47.388;8.538;2023-05-15T07:01:42;13.80;99.90
3542;DHT22;1785;47.388;8.538;2023-05-15T07:04:09;13.80;99.90
3542;DHT22;1785;47.388;8.538;2023-05-15T07:06:36;13.90;99.90
3542;DHT22;1785;47.388;8.538;2023-05-15T07:09:02;13.90;99.90
3542;DHT22;1785;47.388;8.538;2023-05-15T07:11:29;14.20;99.90
3542;DHT22;1785;47.388;8.538;2023-05-15T07:13:55;14.20;99.90
3542;DHT22;1785;47.388;8.538;2023-05-15T07:16:23;14.20;99.90
3542;DHT22;1785;47.388;8.538;2023-05-15T07:18:49;14.10;99.90
3542;DHT22;1785;47.388;8.538;2023-05-15T07:21:16;14.00;99.90
3542;DHT22;1785;47.388;8.538;2023-05-15T07:23:44;13.70;99.90
3542;DHT22;1785;47.388;8.538;2023-05-15T07:26:10;13.50;99.90
3542;DHT22;1785;47.388;8.538;2023-05-15T07:28:36;13.70;99.90
3542;DHT22;1785;47.388;8.538;2023-05-15T07:31:02;13.80;99.90
3542;DHT22;1785;47.388;8.538;2023-05-15T07:33:29;14.10;99.90
3542;DHT22;1785;47.388;8.538;2023-05-15T07:35:55;14.10;99.90
3542;DHT22;1785;47.388;8.538;2023-05-15T07:38:23;14.30;99.90
3542;DHT22;1785;47.388;8.538;2023-05-15T07:40:49;14.10;99.90
3542;DHT22;1785;47.388;8.538;2023-05-15T07:43:16;14.00;99.90
3542;DHT22;1785;47.388;8.538;2023-05-15T07:45:42;14.10;99.90
3542;DHT22;1785;47.388;8.538;2023-05-15T07:48:13;14.30;99.90
3542;DHT22;1785;47.388;8.538;2023-05-15T07:50:39;14.50;99.90
3542;DHT22;1785;47.388;8.538;2023-05-15T07:53:05;14.70;99.90
3542;DHT22;1785;47.388;8.538;2023-05-15T07:55:32;14.80;99.90
3542;DHT22;1785;47.388;8.538;2023-05-15T07:57:58;14.70;99.90
3542;DHT22;1785;47.388;8.538;2023-05-15T08:00:25;14.60;99.90
3542;DHT22;1785;47.388;8.538;2023-05-15T08:02:51;14.60;99.90
3542;DHT22;1785;47.388;8.538;2023-05-15T08:05:17;14.80;99.90
3542;DHT22;1785;47.388;8.538;2023-05-15T08:07:43;14.80;99.90
3542;DHT22;1785;47.388;8.538;2023-05-15T08:10:10;14.80;99.90
3542;DHT22;1785;47.388;8.538;2023-05-15T08:12:37;14.40;99.90
3542;DHT22;1785;47.388;8.538;2023-05-15T08:15:03;14.50;99.90
3542;DHT22;1785;47.388;8.538;2023-05-15T08:17:30;14.60;99.90
3542;DHT22;1785;47.388;8.538;2023-05-15T08:19:56;14.60;99.90
3542;DHT22;1785;47.388;8.538;2023-05-15T08:22:22;14.60;99.90
3542;DHT22;1785;47.388;8.538;2023-05-15T08:24:48;14.70;99.90
3542;DHT22;1785;47.388;8.538;2023-05-15T08:27:14;14.80;99.90
3542;DHT22;1785;47.388;8.538;2023-05-15T08:29:41;15.00;99.90
3542;DHT22;1785;47.388;8.538;2023-05-15T08:32:08;15.10;99.90
3542;DHT22;1785;47.388;8.538;2023-05-15T08:34:34;15.10;99.90
3542;DHT22;1785;47.388;8.538;2023-05-15T08:37:00;15.10;99.90
3542;DHT22;1785;47.388;8.538;2023-05-15T08:39:26;15.10;99.90
3542;DHT22;1785;47.388;8.538;2023-05-15T08:41:55;15.20;99.90
3542;DHT22;1785;47.388;8.538;2023-05-15T08:44:23;15.20;99.90
3542;DHT22;1785;47.388;8.538;2023-05-15T08:46:51;15.30;99.90
3542;DHT22;1785;47.388;8.538;2023-05-15T08:49:28;15.30;99.90
3542;DHT22;1785;47.388;8.538;2023-05-15T08:51:57;15.30;99.90
3542;DHT22;1785;47.388;8.538;2023-05-15T08:54:23;15.40;99.90
3542;DHT22;1785;47.388;8.538;2023-05-15T08:56:49;15.50;99.90
3542;DHT22;1785;47.388;8.538;2023-05-15T08:59:16;15.50;99.90
3542;DHT22;1785;47.388;8.538;2023-05-15T09:01:43;15.60;99.90
3542;DHT22;1785;47.388;8.538;2023-05-15T09:04:10;15.50;99.90
3542;DHT22;1785;47.388;8.538;2023-05-15T09:06:37;15.60;99.90
3542;DHT22;1785;47.388;8.538;2023-05-15T09:09:03;15.70;99.90
3542;DHT22;1785;47.388;8.538;2023-05-15T09:11:31;15.80;99.90
3542;DHT22;1785;47.388;8.538;2023-05-15T09:13:58;15.90;99.90
3542;DHT22;1785;47.388;8.538;2023-05-15T09:16:25;16.00;99.90
3542;DHT22;1785;47.388;8.538;2023-05-15T09:18:52;16.00;99.90
3542;DHT22;1785;47.388;8.538;2023-05-15T09:21:22;16.10;99.90
3542;DHT22;1785;47.388;8.538;2023-05-15T09:23:49;16.10;99.90
3542;DHT22;1785;47.388;8.538;2023-05-15T09:26:15;16.10;99.90
3542;DHT22;1785;47.388;8.538;2023-05-15T09:28:42;16.10;99.90
3542;DHT22;1785;47.388;8.538;2023-05-15T09:31:08;16.00;99.90
3542;DHT22;1785;47.388;8.538;2023-05-15T09:33:35;16.00;99.90
3542;DHT22;1785;47.388;8.538;2023-05-15T09:36:02;15.90;99.90
3542;DHT22;1785;47.388;8.538;2023-05-15T09:38:31;15.90;99.90
3542;DHT22;1785;47.388;8.538;2023-05-15T09:41:00;15.80;99.90
3542;DHT22;1785;47.388;8.538;2023-05-15T09:43:27;15.70;99.90
3542;DHT22;1785;47.388;8.538;2023-05-15T09:45:54;15.50;99.90
3542;DHT22;1785;47.388;8.538;2023-05-15T09:48:21;15.50;99.90
3542;DHT22;1785;47.388;8.538;2023-05-15T09:50:47;15.50;99.90
3542;DHT22;1785;47.388;8.538;2023-05-15T09:53:14;15.50;99.90
3542;DHT22;1785;47.388;8.538;2023-05-15T09:55:41;15.50;99.90
3542;DHT22;1785;47.388;8.538;2023-05-15T09:58:09;15.50;99.90
3542;DHT22;1785;47.388;8.538;2023-05-15T10:00:39;15.50;99.90
3542;DHT22;1785;47.388;8.538;2023-05-15T10:03:08;15.50;99.90
3542;DHT22;1785;47.388;8.538;2023-05-15T10:05:35;15.60;99.90
3542;DHT22;1785;47.388;8.538;2023-05-15T10:08:04;15.70;99.90
3542;DHT22;1785;47.388;8.538;2023-05-15T10:10:30;15.60;99.90
3542;DHT22;1785;47.388;8.538;2023-05-15T10:12:59;15.60;99.90
3542;DHT22;1785;47.388;8.538;2023-05-15T10:15:29;15.70;99.90
3542;DHT22;1785;47.388;8.538;2023-05-15T10:17:55;15.70;99.90
3542;DHT22;1785;47.388;8.538;2023-05-15T10:20:24;15.80;99.90
3542;DHT22;1785;47.388;8.538;2023-05-15T10:22:52;15.80;99.90
3542;DHT22;1785;47.388;8.538;2023-05-15T10:25:25;15.80;99.90
3542;DHT22;1785;47.388;8.538;2023-05-15T10:27:53;15.90;99.90
3542;DHT22;1785;47.388;8.538;2023-05-15T10:30:20;16.10;99.90
3542;DHT22;1785;47.388;8.538;2023-05-15T10:32:47;16.00;99.90
3542;DHT22;1785;47.388;8.538;2023-05-15T10:35:14;16.10;99.90
3542;DHT22;1785;47.388;8.538;2023-05-15T10:40:09;16.50;99.90
3542;DHT22;1785;47.388;8.538;2023-05-15T10:42:36;15.70;99.90
3542;DHT22;1785;47.388;8.538;2023-05-15T10:45:04;16.00;99.90
3542;DHT22;1785;47.388;8.538;2023-05-15T10:47:32;16.30;99.90
3542;DHT22;1785;47.388;8.538;2023-05-15T10:50:00;16.60;99.90
3542;DHT22;1785;47.388;8.538;2023-05-15T10:52:27;16.70;99.90
3542;DHT22;1785;47.388;8.538;2023-05-15T10:54:53;16.80;99.90
3542;DHT22;1785;47.388;8.538;2023-05-15T10:57:20;17.00;99.90
3542;DHT22;1785;47.388;8.538;2023-05-15T10:59:47;17.20;99.90
3542;DHT22;1785;47.388;8.538;2023-05-15T11:02:20;17.00;99.90
3542;DHT22;1785;47.388;8.538;2023-05-15T11:04:55;17.20;99.90
3542;DHT22;1785;47.388;8.538;2023-05-15T11:07:21;17.10;99.90
3542;DHT22;1785;47.388;8.538;2023-05-15T11:09:49;17.00;99.90
3542;DHT22;1785;47.388;8.538;2023-05-15T11:12:15;17.10;99.90
3542;DHT22;1785;47.388;8.538;2023-05-15T11:14:42;17.00;99.90
3542;DHT22;1785;47.388;8.538;2023-05-15T11:17:09;17.10;99.90
3542;DHT22;1785;47.388;8.538;2023-05-15T11:19:56;16.80;99.90
3542;DHT22;1785;47.388;8.538;2023-05-15T11:22:28;16.70;99.90
3542;DHT22;1785;47.388;8.538;2023-05-15T11:25:00;16.50;99.90
3542;DHT22;1785;47.388;8.538;2023-05-15T11:27:29;16.30;99.90
3542;DHT22;1785;47.388;8.538;2023-05-15T11:30:07;16.30;99.90
3542;DHT22;1785;47.388;8.538;2023-05-15T11:32:59;16.40;99.90
3542;DHT22;1785;47.388;8.538;2023-05-15T11:35:28;16.50;99.90
3542;DHT22;1785;47.388;8.538;2023-05-15T11:37:57;16.50;99.90
3542;DHT22;1785;47.388;8.538;2023-05-15T11:40:27;16.80;99.90
3542;DHT22;1785;47.388;8.538;2023-05-15T11:43:01;16.90;99.90
3542;DHT22;1785;47.388;8.538;2023-05-15T11:45:29;17.10;99.90
3542;DHT22;1785;47.388;8.538;2023-05-15T11:47:56;17.40;99.90
3542;DHT22;1785;47.388;8.538;2023-05-15T11:50:24;17.30;99.90
3542;DHT22;1785;47.388;8.538;2023-05-15T11:52:51;17.30;99.90
3542;DHT22;1785;47.388;8.538;2023-05-15T11:55:18;17.30;99.90
3542;DHT22;1785;47.388;8.538;2023-05-15T11:57:45;17.40;99.90
3542;DHT22;1785;47.388;8.538;2023-05-15T12:00:12;17.50;99.90
3542;DHT22;1785;47.388;8.538;2023-05-15T12:02:38;17.50;99.90
3542;DHT22;1785;47.388;8.538;2023-05-15T12:05:05;17.70;99.90
3542;DHT22;1785;47.388;8.538;2023-05-15T12:07:35;17.80;99.90
3542;DHT22;1785;47.388;8.538;2023-05-15T12:10:02;17.80;99.90
3542;DHT22;1785;47.388;8.538;2023-05-15T12:12:29;18.00;99.90
3542;DHT22;1785;47.388;8.538;2023-05-15T12:14:56;18.20;99.90
3542;DHT22;1785;47.388;8.538;2023-05-15T12:17:23;18.30;99.90
3542;DHT22;1785;47.388;8.538;2023-05-15T12:19:50;17.80;99.90
3542;DHT22;1785;47.388;8.538;2023-05-15T12:22:16;17.50;99.90
3542;DHT22;1785;47.388;8.538;2023-05-15T12:24:43;17.70;99.90
3542;DHT22;1785;47.388;8.538;2023-05-15T12:27:11;17.60;99.90
3542;DHT22;1785;47.388;8.538;2023-05-15T12:29:38;17.70;99.90
3542;DHT22;1785;47.388;8.538;2023-05-15T12:32:06;18.00;99.90
3542;DHT22;1785;47.388;8.538;2023-05-15T12:34:33;18.30;99.90
3542;DHT22;1785;47.388;8.538;2023-05-15T12:36:59;18.20;99.90
3542;DHT22;1785;47.388;8.538;2023-05-15T12:39:25;18.30;99.90
3542;DHT22;1785;47.388;8.538;2023-05-15T12:41:51;18.60;99.90
3542;DHT22;1785;47.388;8.538;2023-05-15T12:44:19;18.90;99.90
3542;DHT22;1785;47.388;8.538;2023-05-15T12:46:46;19.00;99.90
3542;DHT22;1785;47.388;8.538;2023-05-15T12:49:13;18.90;99.90
3542;DHT22;1785;47.388;8.538;2023-05-15T12:51:45;19.00;99.90
3542;DHT22;1785;47.388;8.538;2023-05-15T12:54:18;18.40;99.90
3542;DHT22;1785;47.388;8.538;2023-05-15T12:56:46;18.70;99.90
3542;DHT22;1785;47.388;8.538;2023-05-15T12:59:12;19.00;99.90
3542;DHT22;1785;47.388;8.538;2023-05-15T13:01:40;19.20;99.90
3542;DHT22;1785;47.388;8.538;2023-05-15T13:04:07;19.30;99.90
3542;DHT22;1785;47.388;8.538;2023-05-15T13:06:33;19.30;99.90
3542;DHT22;1785;47.388;8.538;2023-05-15T13:09:00;19.40;99.90
3542;DHT22;1785;47.388;8.538;2023-05-15T13:11:29;19.80;99.90
3542;DHT22;1785;47.388;8.538;2023-05-15T13:13:55;19.80;99.90
3542;DHT22;1785;47.388;8.538;2023-05-15T13:16:24;19.80;99.90
3542;DHT22;1785;47.388;8.538;2023-05-15T13:18:51;19.80;99.90
3542;DHT22;1785;47.388;8.538;2023-05-15T13:21:17;19.60;99.90
3542;DHT22;1785;47.388;8.538;2023-05-15T13:23:44;19.70;99.90
3542;DHT22;1785;47.388;8.538;2023-05-15T13:26:10;19.80;99.90
3542;DHT22;1785;47.388;8.538;2023-05-15T13:28:36;19.90;99.90
3542;DHT22;1785;47.388;8.538;2023-05-15T13:31:02;20.10;99.90
3542;DHT22;1785;47.388;8.538;2023-05-15T13:33:28;20.10;99.90
3542;DHT22;1785;47.388;8.538;2023-05-15T13:35:55;19.90;99.90
3542;DHT22;1785;47.388;8.538;2023-05-15T13:38:22;19.60;99.90
3542;DHT22;1785;47.388;8.538;2023-05-15T13:40:49;19.70;99.90
3542;DHT22;1785;47.388;8.538;2023-05-15T13:43:15;19.40;99.90
3542;DHT22;1785;47.388;8.538;2023-05-15T13:45:41;18.90;99.90
3542;DHT22;1785;47.388;8.538;2023-05-15T13:48:08;19.20;99.90
3542;DHT22;1785;47.388;8.538;2023-05-15T13:50:34;19.50;99.90
3542;DHT22;1785;47.388;8.538;2023-05-15T13:53:01;19.60;99.90
3542;DHT22;1785;47.388;8.538;2023-05-15T13:55:28;19.60;99.90
3542;DHT22;1785;47.388;8.538;2023-05-15T13:57:54;19.70;99.90
3542;DHT22;1785;47.388;8.538;2023-05-15T14:00:20;19.80;99.90
3542;DHT22;1785;47.388;8.538;2023-05-15T14:02:46;19.90;99.90
3542;DHT22;1785;47.388;8.538;2023-05-15T14:05:14;19.80;99.90
3542;DHT22;1785;47.388;8.538;2023-05-15T14:07:40;20.00;99.90
3542;DHT22;1785;47.388;8.538;2023-05-15T14:10:08;20.00;99.90
3542;DHT22;1785;47.388;8.538;2023-05-15T14:12:35;19.60;99.90
3542;DHT22;1785;47.388;8.538;2023-05-15T14:15:01;19.30;99.90
3542;DHT22;1785;47.388;8.538;2023-05-15T14:17:27;19.00;99.90
3542;DHT22;1785;47.388;8.538;2023-05-15T14:19:53;18.70;99.90
3542;DHT22;1785;47.388;8.538;2023-05-15T14:22:19;18.60;99.90
3542;DHT22;1785;47.388;8.538;2023-05-15T14:24:49;18.30;99.90
3542;DHT22;1785;47.388;8.538;2023-05-15T14:27:16;17.90;99.90
3542;DHT22;1785;47.388;8.538;2023-05-15T14:29:42;17.40;99.90
3542;DHT22;1785;47.388;8.538;2023-05-15T14:32:09;17.50;99.90
3542;DHT22;1785;47.388;8.538;2023-05-15T14:34:35;17.60;99.90
3542;DHT22;1785;47.388;8.538;2023-05-15T14:37:01;17.10;99.90
3542;DHT22;1785;47.388;8.538;2023-05-15T14:39:27;17.00;99.90
3542;DHT22;1785;47.388;8.538;2023-05-15T14:41:54;16.90;99.90
3542;DHT22;1785;47.388;8.538;2023-05-15T14:44:20;17.10;99.90
3542;DHT22;1785;47.388;8.538;2023-05-15T14:46:46;17.40;99.90
3542;DHT22;1785;47.388;8.538;2023-05-15T14:49:13;17.30;99.90
3542;DHT22;1785;47.388;8.538;2023-05-15T14:51:39;17.30;99.90
3542;DHT22;1785;47.388;8.538;2023-05-15T14:54:06;17.00;99.90
3542;DHT22;1785;47.388;8.538;2023-05-15T14:56:32;17.00;99.90
3542;DHT22;1785;47.388;8.538;2023-05-15T14:58:58;17.20;99.90
3542;DHT22;1785;47.388;8.538;2023-05-15T15:01:25;17.10;99.90
3542;DHT22;1785;47.388;8.538;2023-05-15T15:03:51;17.00;99.90
3542;DHT22;1785;47.388;8.538;2023-05-15T15:06:17;16.70;99.90
3542;DHT22;1785;47.388;8.538;2023-05-15T15:08:43;16.40;99.90
3542;DHT22;1785;47.388;8.538;2023-05-15T15:11:09;16.20;99.90
3542;DHT22;1785;47.388;8.538;2023-05-15T15:13:36;16.10;99.90
3542;DHT22;1785;47.388;8.538;2023-05-15T15:16:02;15.90;99.90
3542;DHT22;1785;47.388;8.538;2023-05-15T15:18:29;15.80;99.90
3542;DHT22;1785;47.388;8.538;2023-05-15T15:20:55;16.00;99.90
3542;DHT22;1785;47.388;8.538;2023-05-15T15:23:22;15.90;99.90
3542;DHT22;1785;47.388;8.538;2023-05-15T15:25:48;15.80;99.90
3542;DHT22;1785;47.388;8.538;2023-05-15T15:28:14;15.60;99.90
3542;DHT22;1785;47.388;8.538;2023-05-15T15:30:40;15.70;99.90
3542;DHT22;1785;47.388;8.538;2023-05-15T15:33:06;15.60;99.90
3542;DHT22;1785;47.388;8.538;2023-05-15T15:35:33;15.60;99.90
3542;DHT22;1785;47.388;8.538;2023-05-15T15:37:59;15.80;99.90
3542;DHT22;1785;47.388;8.538;2023-05-15T15:40:25;15.70;99.90
3542;DHT22;1785;47.388;8.538;2023-05-15T15:42:51;15.50;99.90
3542;DHT22;1785;47.388;8.538;2023-05-15T15:45:18;15.70;99.90
3542;DHT22;1785;47.388;8.538;2023-05-15T15:47:44;16.00;99.90
3542;DHT22;1785;47.388;8.538;2023-05-15T15:50:10;16.10;99.90
3542;DHT22;1785;47.388;8.538;2023-05-15T15:52:38;15.90;99.90
3542;DHT22;1785;47.388;8.538;2023-05-15T15:55:05;15.70;99.90
3542;DHT22;1785;47.388;8.538;2023-05-15T15:57:32;15.40;99.90
3542;DHT22;1785;47.388;8.538;2023-05-15T15:59:58;15.20;99.90
3542;DHT22;1785;47.388;8.538;2023-05-15T16:02:24;15.20;99.90
3542;DHT22;1785;47.388;8.538;2023-05-15T16:04:51;15.20;99.90
3542;DHT22;1785;47.388;8.538;2023-05-15T16:07:17;15.00;99.90